Time,TemperatureF,DewpointF,PressureIn,WindDirection,WindDirectionDegrees,WindSpeedMPH,WindSpeedGustMPH,Humidity,HourlyPrecipIn,Conditions,Clouds,dailyrainin,SoftwareType,DateUTC
2013-02-21 00:52:00,54.0,-99.9,30.09,NE,56,13.0,15.0,-999,-99.99,,,-99.99,,2013-02-21 06:52:00,
2013-02-21 01:01:00,54.0,-99.9,30.07,NE,55,16.0,18.0,-999,-99.99,,,-99.99,,2013-02-21 07:01:00,
2013-02-21 01:11:00,53.0,-99.9,30.08,NE,54,13.0,14.0,-999,-99.99,,,-99.99,,2013-02-21 07:11:00,
2013-02-21 01:22:00,53.0,-99.9,30.09,NE,53,12.0,13.0,-999,-99.99,,,-99.99,,2013-02-21 07:22:00,
2013-02-21 01:32:00,53.0,-99.9,30.09,ENE,64,12.0,14.0,-999,-99.99,,,-99.99,,2013-02-21 07:32:00,
2013-02-21 01:42:00,53.0,-99.9,30.08,ENE,61,12.0,15.0,-999,-99.99,,,-99.99,,2013-02-21 07:42:00,
2013-02-21 01:52:00,52.0,-99.9,30.08,ENE,63,10.0,12.0,-999,-99.99,,,-99.99,,2013-02-21 07:52:00,
2013-02-21 02:02:00,52.0,-99.9,30.08,ENE,74,9.0,12.0,-999,-99.99,,,-99.99,,2013-02-21 08:02:00,
2013-02-21 02:11:00,52.0,-99.9,30.07,East,82,11.0,14.0,-999,-99.99,,,-99.99,,2013-02-21 08:11:00,
2013-02-21 02:21:00,53.0,-99.9,30.06,ENE,72,14.0,16.0,-999,-99.99,,,-99.99,,2013-02-21 08:21:00,
2013-02-21 02:32:00,53.0,-99.9,30.05,ENE,65,12.0,15.0,-999,-99.99,,,-99.99,,2013-02-21 08:32:00,
2013-02-21 02:42:00,53.0,-99.9,30.05,ENE,66,13.0,14.0,-999,-99.99,,,-99.99,,2013-02-21 08:42:00,
2013-02-21 02:52:00,53.0,-99.9,30.05,ENE,64,13.0,15.0,-999,-99.99,,,-99.99,,2013-02-21 08:52:00,
2013-02-21 03:02:00,53.0,-99.9,30.05,ENE,61,14.0,16.0,-999,-99.99,,,-99.99,,2013-02-21 09:02:00,
2013-02-21 03:11:00,53.0,-99.9,30.04,ENE,58,13.0,16.0,-999,-99.99,,,-99.99,,2013-02-21 09:11:00,
2013-02-21 03:22:00,53.0,-99.9,30.04,ENE,64,13.0,15.0,-999,-99.99,,,-99.99,,2013-02-21 09:22:00,
2013-02-21 03:32:00,52.0,-99.9,30.05,NE,52,13.0,16.0,-999,-99.99,,,-99.99,,2013-02-21 09:32:00,
2013-02-21 03:42:00,52.0,-99.9,30.04,NE,49,15.0,16.0,-999,-99.99,,,-99.99,,2013-02-21 09:42:00,
2013-02-21 03:52:00,52.0,-99.9,30.03,NE,50,15.0,17.0,-999,-99.99,,,-99.99,,2013-02-21 09:52:00,
2013-02-21 04:01:00,52.0,-99.9,30.03,NE,50,15.0,17.0,-999,-99.99,,,-99.99,,2013-02-21 10:01:00,
2013-02-21 04:11:00,52.0,-99.9,30.03,NE,50,15.0,17.0,-999,-99.99,,,-99.99,,2013-02-21 10:11:00,
2013-02-21 04:21:00,52.0,-99.9,30.03,NE,50,15.0,17.0,-999,-99.99,,,-99.99,,2013-02-21 10:21:00,
2013-02-21 05:21:00,52.0,-99.9,30.04,ENE,76,15.0,17.0,-999,-99.99,,,-99.99,,2013-02-21 11:21:00,
2013-02-21 05:31:00,52.0,-99.9,30.04,East,83,17.0,18.0,-999,-99.99,,,-99.99,,2013-02-21 11:31:00,
2013-02-21 05:41:00,52.0,-99.9,30.04,East,79,13.0,15.0,-999,-99.99,,,-99.99,,2013-02-21 11:41:00,
2013-02-21 05:52:00,52.0,-99.9,30.05,ENE,65,11.0,13.0,-999,-99.99,,,-99.99,,2013-02-21 11:52:00,
2013-02-21 06:01:00,52.0,-99.9,30.05,NE,54,12.0,13.0,-999,-99.99,,,-99.99,,2013-02-21 12:01:00,
2013-02-21 06:11:00,52.0,-99.9,30.05,ENE,62,13.0,15.0,-999,-99.99,,,-99.99,,2013-02-21 12:11:00,
2013-02-21 06:22:00,52.0,-99.9,30.05,ENE,63,15.0,17.0,-999,-99.99,,,-99.99,,2013-02-21 12:22:00,
2013-02-21 06:32:00,52.0,-99.9,30.05,ENE,62,16.0,17.0,-999,-99.99,,,-99.99,,2013-02-21 12:32:00,
2013-02-21 06:43:00,52.0,-99.9,30.05,ENE,58,17.0,19.0,-999,-99.99,,,-99.99,,2013-02-21 12:43:00,
2013-02-21 06:53:00,52.0,-99.9,30.06,ENE,57,17.0,18.0,-999,-99.99,,,-99.99,,2013-02-21 12:53:00,
2013-02-21 07:02:00,52.0,-99.9,30.05,ENE,60,16.0,18.0,-999,-99.99,,,-99.99,,2013-02-21 13:02:00,
2013-02-21 07:12:00,52.0,-99.9,30.06,NE,56,15.0,18.0,-999,-99.99,,,-99.99,,2013-02-21 13:12:00,
2013-02-21 07:22:00,52.0,-99.9,30.06,ENE,67,15.0,19.0,-999,-99.99,,,-99.99,,2013-02-21 13:22:00,
2013-02-21 07:32:00,53.0,-99.9,30.06,ENE,64,17.0,20.0,-999,-99.99,,,-99.99,,2013-02-21 13:32:00,
2013-02-21 07:42:00,53.0,-99.9,30.06,ENE,65,17.0,19.0,-999,-99.99,,,-99.99,,2013-02-21 13:42:00,
2013-02-21 07:52:00,52.0,-99.9,30.07,ENE,63,18.0,21.0,-999,-99.99,,,-99.99,,2013-02-21 13:52:00,
2013-02-21 08:02:00,53.0,-99.9,30.07,ENE,74,18.0,20.0,-999,-99.99,,,-99.99,,2013-02-21 14:02:00,
2013-02-21 08:11:00,53.0,-99.9,30.07,ENE,73,18.0,20.0,-999,-99.99,,,-99.99,,2013-02-21 14:11:00,
2013-02-21 08:22:00,53.0,-99.9,30.06,ENE,73,18.0,21.0,-999,-99.99,,,-99.99,,2013-02-21 14:22:00,
2013-02-21 08:32:00,53.0,-99.9,30.08,ENE,77,17.0,18.0,-999,-99.99,,,-99.99,,2013-02-21 14:32:00,
2013-02-21 08:42:00,53.0,-99.9,30.07,ENE,70,15.0,17.0,-999,-99.99,,,-99.99,,2013-02-21 14:42:00,
2013-02-21 08:52:00,54.0,-99.9,30.08,ENE,65,14.0,16.0,-999,-99.99,,,-99.99,,2013-02-21 14:52:00,
2013-02-21 09:02:00,54.0,-99.9,30.08,ENE,59,14.0,17.0,-999,-99.99,,,-99.99,,2013-02-21 15:02:00,
2013-02-21 09:12:00,54.0,-99.9,30.08,ENE,57,15.0,18.0,-999,-99.99,,,-99.99,,2013-02-21 15:12:00,
2013-02-21 09:22:00,54.0,-99.9,30.08,ENE,63,15.0,17.0,-999,-99.99,,,-99.99,,2013-02-21 15:22:00,
2013-02-21 09:32:00,55.0,-99.9,30.07,ENE,72,17.0,20.0,-999,-99.99,,,-99.99,,2013-02-21 15:32:00,
2013-02-21 09:42:00,55.0,-99.9,30.07,ENE,72,17.0,21.0,-999,-99.99,,,-99.99,,2013-02-21 15:42:00,
2013-02-21 09:52:00,55.0,-99.9,30.07,ENE,74,18.0,19.0,-999,-99.99,,,-99.99,,2013-02-21 15:52:00,
2013-02-21 10:02:00,55.0,-99.9,30.07,ENE,75,15.0,17.0,-999,-99.99,,,-99.99,,2013-02-21 16:02:00,
2013-02-21 10:12:00,56.0,-99.9,30.07,East,84,12.0,18.0,-999,-99.99,,,-99.99,,2013-02-21 16:12:00,
2013-02-21 10:22:00,57.0,-99.9,30.06,East,87,17.0,20.0,-999,-99.99,,,-99.99,,2013-02-21 16:22:00,
2013-02-21 10:32:00,58.0,-99.9,30.06,East,90,18.0,21.0,-999,-99.99,,,-99.99,,2013-02-21 16:32:00,
2013-02-21 10:42:00,58.0,-99.9,30.06,East,90,19.0,23.0,-999,-99.99,,,-99.99,,2013-02-21 16:42:00,
2013-02-21 10:52:00,58.0,-99.9,30.06,East,91,19.0,22.0,-999,-99.99,,,-99.99,,2013-02-21 16:52:00,
2013-02-21 11:02:00,58.0,-99.9,30.05,East,95,21.0,25.0,-999,-99.99,,,-99.99,,2013-02-21 17:02:00,
2013-02-21 11:12:00,59.0,-99.9,30.04,East,97,22.0,24.0,-999,-99.99,,,-99.99,,2013-02-21 17:12:00,
2013-02-21 11:22:00,59.0,-99.9,30.04,ESE,102,23.0,26.0,-999,-99.99,,,-99.99,,2013-02-21 17:22:00,
2013-02-21 11:32:00,60.0,-99.9,30.03,ESE,105,20.0,24.0,-999,-99.99,,,-99.99,,2013-02-21 17:32:00,
2013-02-21 11:42:00,60.0,-99.9,30.04,ESE,106,20.0,24.0,-999,-99.99,,,-99.99,,2013-02-21 17:42:00,
2013-02-21 11:52:00,61.0,-99.9,30.04,ESE,111,20.0,28.0,-999,-99.99,,,-99.99,,2013-02-21 17:52:00,
2013-02-21 12:02:00,61.0,-99.9,30.02,ESE,112,23.0,27.0,-999,-99.99,,,-99.99,,2013-02-21 18:02:00,
2013-02-21 12:12:00,61.0,-99.9,30.02,ESE,113,23.0,26.0,-999,-99.99,,,-99.99,,2013-02-21 18:12:00,
2013-02-21 12:22:00,61.0,-99.9,30.02,ESE,115,23.0,28.0,-999,-99.99,,,-99.99,,2013-02-21 18:22:00,
2013-02-21 12:32:00,61.0,-99.9,30.01,ESE,116,23.0,26.0,-999,-99.99,,,-99.99,,2013-02-21 18:32:00,
2013-02-21 12:42:00,61.0,-99.9,30.01,ESE,116,21.0,25.0,-999,-99.99,,,-99.99,,2013-02-21 18:42:00,
2013-02-21 12:52:00,61.0,-99.9,30.00,ESE,114,23.0,26.0,-999,-99.99,,,-99.99,,2013-02-21 18:52:00,
2013-02-21 13:02:00,61.0,-99.9,29.99,ESE,113,23.0,27.0,-999,-99.99,,,-99.99,,2013-02-21 19:02:00,
2013-02-21 13:12:00,61.0,-99.9,29.98,ESE,112,22.0,26.0,-999,-99.99,,,-99.99,,2013-02-21 19:12:00,
2013-02-21 13:22:00,61.0,-99.9,29.98,ESE,112,23.0,26.0,-999,-99.99,,,-99.99,,2013-02-21 19:22:00,
2013-02-21 13:32:00,61.0,-99.9,29.98,ESE,114,23.0,27.0,-999,-99.99,,,-99.99,,2013-02-21 19:32:00,
2013-02-21 13:42:00,62.0,-99.9,29.96,ESE,114,24.0,26.0,-999,-99.99,,,-99.99,,2013-02-21 19:42:00,
2013-02-21 13:52:00,62.0,-99.9,29.96,ESE,114,24.0,26.0,-999,-99.99,,,-99.99,,2013-02-21 19:52:00,
2013-02-21 14:01:00,61.0,-99.9,29.96,ESE,113,22.0,25.0,-999,-99.99,,,-99.99,,2013-02-21 20:01:00,
2013-02-21 14:11:00,62.0,-99.9,29.96,ESE,113,21.0,24.0,-999,-99.99,,,-99.99,,2013-02-21 20:11:00,
2013-02-21 14:22:00,62.0,-99.9,29.95,ESE,115,20.0,22.0,-999,-99.99,,,-99.99,,2013-02-21 20:22:00,
2013-02-21 14:32:00,62.0,-99.9,29.94,ESE,116,21.0,23.0,-999,-99.99,,,-99.99,,2013-02-21 20:32:00,
2013-02-21 14:42:00,62.0,-99.9,29.94,ESE,119,20.0,23.0,-999,-99.99,,,-99.99,,2013-02-21 20:42:00,
2013-02-21 14:53:00,62.0,-99.9,29.93,ESE,118,21.0,24.0,-999,-99.99,,,-99.99,,2013-02-21 20:53:00,
2013-02-21 15:02:00,62.0,-99.9,29.92,ESE,119,22.0,25.0,-999,-99.99,,,-99.99,,2013-02-21 21:02:00,
2013-02-21 15:12:00,62.0,-99.9,29.92,ESE,118,23.0,26.0,-999,-99.99,,,-99.99,,2013-02-21 21:12:00,
2013-02-21 15:22:00,63.0,-99.9,29.91,ESE,121,24.0,27.0,-999,-99.99,,,-99.99,,2013-02-21 21:22:00,
2013-02-21 15:32:00,63.0,-99.9,29.90,ESE,123,23.0,27.0,-999,-99.99,,,-99.99,,2013-02-21 21:32:00,
2013-02-21 15:42:00,63.0,-99.9,29.90,SE,125,23.0,28.0,-999,-99.99,,,-99.99,,2013-02-21 21:42:00,
2013-02-21 15:52:00,64.0,-99.9,29.91,SE,125,23.0,26.0,-999,-99.99,,,-99.99,,2013-02-21 21:52:00,
2013-02-21 16:01:00,63.0,-99.9,29.90,ESE,123,20.0,23.0,-999,-99.99,,,-99.99,,2013-02-21 22:01:00,
2013-02-21 16:11:00,63.0,-99.9,29.91,ESE,120,19.0,21.0,-999,-99.99,,,-99.99,,2013-02-21 22:11:00,
2013-02-21 16:22:00,63.0,-99.9,29.91,ESE,120,19.0,21.0,-999,-99.99,,,-99.99,,2013-02-21 22:22:00,
2013-02-21 16:32:00,63.0,-99.9,29.90,ESE,117,18.0,21.0,-999,-99.99,,,-99.99,,2013-02-21 22:32:00,
2013-02-21 16:42:00,63.0,-99.9,29.90,ESE,120,20.0,22.0,-999,-99.99,,,-99.99,,2013-02-21 22:42:00,
2013-02-21 16:52:00,63.0,-99.9,29.90,ESE,122,19.0,21.0,-999,-99.99,,,-99.99,,2013-02-21 22:52:00,
2013-02-21 17:01:00,63.0,-99.9,29.90,SE,127,19.0,21.0,-999,-99.99,,,-99.99,,2013-02-21 23:01:00,
2013-02-21 17:11:00,63.0,-99.9,29.90,SE,125,19.0,20.0,-999,-99.99,,,-99.99,,2013-02-21 23:11:00,
2013-02-21 17:22:00,63.0,-99.9,29.91,SE,129,16.0,18.0,-999,-99.99,,,-99.99,,2013-02-21 23:22:00,
2013-02-21 17:32:00,63.0,-99.9,29.91,SE,127,15.0,18.0,-999,-99.99,,,-99.99,,2013-02-21 23:32:00,
2013-02-21 17:42:00,63.0,-99.9,29.91,SE,127,17.0,18.0,-999,-99.99,,,-99.99,,2013-02-21 23:42:00,
2013-02-21 17:53:00,63.0,-99.9,29.91,SE,125,17.0,19.0,-999,-99.99,,,-99.99,,2013-02-21 23:53:00,
2013-02-21 18:02:00,63.0,-99.9,29.90,SE,124,18.0,20.0,-999,-99.99,,,-99.99,,2013-02-22 00:02:00,
2013-02-21 18:11:00,63.0,-99.9,29.90,SE,126,19.0,21.0,-999,-99.99,,,-99.99,,2013-02-22 00:11:00,
2013-02-21 18:22:00,63.0,-99.9,29.91,SE,125,17.0,18.0,-999,-99.99,,,-99.99,,2013-02-22 00:22:00,
2013-02-21 18:32:00,63.0,-99.9,29.91,SE,127,16.0,18.0,-999,-99.99,,,-99.99,,2013-02-22 00:32:00,
2013-02-21 18:42:00,63.0,-99.9,29.91,SE,127,17.0,18.0,-999,-99.99,,,-99.99,,2013-02-22 00:42:00,
2013-02-21 18:52:00,63.0,-99.9,29.91,SE,128,16.0,17.0,-999,-99.99,,,-99.99,,2013-02-22 00:52:00,
2013-02-21 19:01:00,63.0,-99.9,29.92,SE,129,17.0,18.0,-999,-99.99,,,-99.99,,2013-02-22 01:01:00,
2013-02-21 19:11:00,63.0,-99.9,29.92,SE,130,16.0,18.0,-999,-99.99,,,-99.99,,2013-02-22 01:11:00,
2013-02-21 19:22:00,63.0,-99.9,29.93,SE,131,16.0,17.0,-999,-99.99,,,-99.99,,2013-02-22 01:22:00,
2013-02-21 19:32:00,63.0,-99.9,29.93,SE,132,15.0,17.0,-999,-99.99,,,-99.99,,2013-02-22 01:32:00,
2013-02-21 19:42:00,63.0,-99.9,29.93,SE,130,15.0,17.0,-999,-99.99,,,-99.99,,2013-02-22 01:42:00,
2013-02-21 19:52:00,63.0,-99.9,29.93,SE,130,16.0,18.0,-999,-99.99,,,-99.99,,2013-02-22 01:52:00,
2013-02-21 20:02:00,63.0,-99.9,29.91,SE,126,22.0,24.0,-999,-99.99,,,-99.99,,2013-02-22 02:02:00,
2013-02-21 20:11:00,63.0,-99.9,29.91,SE,129,20.0,22.0,-999,-99.99,,,-99.99,,2013-02-22 02:11:00,
2013-02-21 20:22:00,63.0,-99.9,29.93,SE,129,17.0,20.0,-999,-99.99,,,-99.99,,2013-02-22 02:22:00,
2013-02-21 20:32:00,63.0,-99.9,29.93,SE,131,18.0,21.0,-999,-99.99,,,-99.99,,2013-02-22 02:32:00,
2013-02-21 20:42:00,63.0,-99.9,29.93,SE,133,19.0,22.0,-999,-99.99,,,-99.99,,2013-02-22 02:42:00,
2013-02-21 20:52:00,63.0,-99.9,29.92,SE,132,19.0,21.0,-999,-99.99,,,-99.99,,2013-02-22 02:52:00,
2013-02-21 21:02:00,63.0,-99.9,29.92,SE,130,20.0,22.0,-999,-99.99,,,-99.99,,2013-02-22 03:02:00,
2013-02-21 21:11:00,63.0,-99.9,29.92,SE,130,21.0,22.0,-999,-99.99,,,-99.99,,2013-02-22 03:11:00,
2013-02-21 21:22:00,64.0,-99.9,29.92,SE,130,21.0,23.0,-999,-99.99,,,-99.99,,2013-02-22 03:22:00,
2013-02-21 21:32:00,64.0,-99.9,29.92,SE,129,20.0,21.0,-999,-99.99,,,-99.99,,2013-02-22 03:32:00,
2013-02-21 21:42:00,64.0,-99.9,29.93,SE,131,19.0,21.0,-999,-99.99,,,-99.99,,2013-02-22 03:42:00,
2013-02-21 21:52:00,64.0,-99.9,29.93,SE,132,19.0,20.0,-999,-99.99,,,-99.99,,2013-02-22 03:52:00,
2013-02-21 22:02:00,64.0,-99.9,29.93,SE,133,19.0,20.0,-999,-99.99,,,-99.99,,2013-02-22 04:02:00,
2013-02-21 22:11:00,64.0,-99.9,29.93,SE,131,18.0,20.0,-999,-99.99,,,-99.99,,2013-02-22 04:11:00,
2013-02-21 22:22:00,64.0,-99.9,29.93,SE,135,17.0,19.0,-999,-99.99,,,-99.99,,2013-02-22 04:22:00,
2013-02-21 22:32:00,64.0,-99.9,29.93,SE,135,16.0,18.0,-999,-99.99,,,-99.99,,2013-02-22 04:32:00,
2013-02-21 22:42:00,64.0,-99.9,29.93,SE,135,16.0,18.0,-999,-99.99,,,-99.99,,2013-02-22 04:42:00,
2013-02-21 22:52:00,64.0,-99.9,29.93,SE,136,17.0,18.0,-999,-99.99,,,-99.99,,2013-02-22 04:52:00,
2013-02-21 23:02:00,63.0,-99.9,29.93,SE,138,15.0,17.0,-999,-99.99,,,-99.99,,2013-02-22 05:02:00,
2013-02-21 23:12:00,63.0,-99.9,29.92,SE,137,16.0,17.0,-999,-99.99,,,-99.99,,2013-02-22 05:12:00,
2013-02-21 23:22:00,63.0,-99.9,29.93,SE,140,13.0,15.0,-999,-99.99,,,-99.99,,2013-02-22 05:22:00,
2013-02-21 23:32:00,63.0,-99.9,29.93,SE,137,15.0,16.0,-999,-99.99,,,-99.99,,2013-02-22 05:32:00,
2013-02-21 23:42:00,63.0,-99.9,29.93,SE,137,14.0,14.0,-999,-99.99,,,-99.99,,2013-02-22 05:42:00,
2013-02-21 23:52:00,63.0,-99.9,29.93,SE,137,12.0,13.0,-999,-99.99,,,-99.99,,2013-02-22 05:52:00,